Danville Regional Airport
KDAN : now visible

Airfield :











YOU CAN JOIN US ON...

 
LOGIN :

Register | Disclaimer

   EN    FR    IT 

 









Legend :    VFR   Marginal VFR   IFR   Intensive IFR   Very Intensive IFR
Visi :
Ceiling :
>= 8 km
>= 3000ft
5 to 8 km
1000 to 3000 ft
1500m to 5 km
500 to 1000 ft
800 to 1500m
200 to 500 ft
< 800m
< 200 ft
Symbols :   Thunderstorms  Fog  Heavy snow  Heavy precipitations  Wind > 20 kt






- Airport Elevation : 571 ft
- IATA code : DAN


KDAN - Danville Regional

CURRENT METAR :
  • 042253Z AUTO 18006KT 10SM -RA FEW048 BKN085 OVC110 21/18 A2993 RMK AO2 PK WND 25026/2238 RAB33 SLP125 P0003 T02110178

EXPIRED METARs :
  • 042153Z AUTO 21005KT 10SM BKN075 BKN090 30/19 A2991 RMK AO2 SLP119 T03000194
  • 042053Z AUTO 22009KT 10SM FEW065 31/19 A2991 RMK AO2 SLP117 T03060194 58007

TAF KDAN
Valid from the 04 at 22:00 until the 05 at 18:00 UTC


042155Z 0422/0518 22010KT P6SM VCSH SCT070
TEMPO 0422/0423 4SM -SHRA BKN040
FM050200 VRB03KT P6SM SCT100
FM050900 00000KT 6SM BR FEW120
FM051300 23004KT P6SM FEW050
KZDC FIR / North America



MET'MAP, your aeronautical weather chart ! - Copyright ORBIFLY December 2007 - Disclaimer

ORBIFLY MET'MAP TEAM :

Programming & Development : Alexandra Zaïnal
Concept & original design : Baudouin d'Aumeries
Assistance for programming : Marc-Olivier Méhu
Technical & hardware support : Manuel Goepfert

Contact : metmap@orbifly.com




SOURCES & CREDITS :

   NOAA       Earth
Advisory